sensor_id;sensor_type;location;lat;lon;timestamp;pressure;altitude;pressure_sealevel;temperature;humidity
56821;BME280;42702;50.178;20.992;2022-12-07T00:01:42;98833.50;;;2.36;85.66
56821;BME280;42702;50.178;20.992;2022-12-07T00:04:14;98830.86;;;2.33;85.82
56821;BME280;42702;50.178;20.992;2022-12-07T00:06:44;98831.55;;;2.34;86.03
56821;BME280;42702;50.178;20.992;2022-12-07T00:09:14;98830.34;;;2.33;86.01
56821;BME280;42702;50.178;20.992;2022-12-07T00:11:43;98831.27;;;2.36;85.90
56821;BME280;42702;50.178;20.992;2022-12-07T00:14:14;98832.00;;;2.38;85.94
56821;BME280;42702;50.178;20.992;2022-12-07T00:16:43;98831.95;;;2.36;86.27
56821;BME280;42702;50.178;20.992;2022-12-07T00:19:13;98834.50;;;2.34;86.30
56821;BME280;42702;50.178;20.992;2022-12-07T00:21:41;98837.61;;;2.35;86.32
56821;BME280;42702;50.178;20.992;2022-12-07T00:24:11;98841.86;;;2.41;86.09
56821;BME280;42702;50.178;20.992;2022-12-07T00:26:41;98842.27;;;2.44;85.97
56821;BME280;42702;50.178;20.992;2022-12-07T00:29:19;98843.29;;;2.44;86.01
56821;BME280;42702;50.178;20.992;2022-12-07T00:31:47;98842.90;;;2.41;85.87
56821;BME280;42702;50.178;20.992;2022-12-07T00:34:18;98846.44;;;2.38;85.90
56821;BME280;42702;50.178;20.992;2022-12-07T00:36:48;98843.02;;;2.39;85.77
56821;BME280;42702;50.178;20.992;2022-12-07T00:39:16;98839.58;;;2.39;85.71
56821;BME280;42702;50.178;20.992;2022-12-07T00:41:44;98840.39;;;2.37;85.74
56821;BME280;42702;50.178;20.992;2022-12-07T00:44:13;98843.46;;;2.35;85.92
56821;BME280;42702;50.178;20.992;2022-12-07T00:46:41;98843.01;;;2.30;85.91
56821;BME280;42702;50.178;20.992;2022-12-07T00:49:09;98843.92;;;2.33;85.85
56821;BME280;42702;50.178;20.992;2022-12-07T00:51:37;98846.04;;;2.36;85.72
56821;BME280;42702;50.178;20.992;2022-12-07T00:54:05;98847.07;;;2.35;85.85
56821;BME280;42702;50.178;20.992;2022-12-07T00:56:33;98844.63;;;2.33;85.75
56821;BME280;42702;50.178;20.992;2022-12-07T00:59:03;98844.98;;;2.33;85.86
56821;BME280;42702;50.178;20.992;2022-12-07T01:01:33;98840.48;;;2.32;85.51
56821;BME280;42702;50.178;20.992;2022-12-07T01:04:02;98838.08;;;2.33;85.46
56821;BME280;42702;50.178;20.992;2022-12-07T01:06:31;98832.85;;;2.29;85.45
56821;BME280;42702;50.178;20.992;2022-12-07T01:09:00;98834.38;;;2.28;85.70
56821;BME280;42702;50.178;20.992;2022-12-07T01:11:29;98831.28;;;2.28;85.71
56821;BME280;42702;50.178;20.992;2022-12-07T01:13:59;98829.88;;;2.26;85.48
56821;BME280;42702;50.178;20.992;2022-12-07T01:16:29;98827.15;;;2.28;85.44
56821;BME280;42702;50.178;20.992;2022-12-07T01:18:59;98830.23;;;2.27;85.46
56821;BME280;42702;50.178;20.992;2022-12-07T01:21:32;98826.91;;;2.24;85.66
56821;BME280;42702;50.178;20.992;2022-12-07T01:24:05;98827.55;;;2.22;85.72
56821;BME280;42702;50.178;20.992;2022-12-07T01:26:33;98826.52;;;2.21;85.83
56821;BME280;42702;50.178;20.992;2022-12-07T01:29:02;98825.45;;;2.21;85.65
56821;BME280;42702;50.178;20.992;2022-12-07T01:31:30;98827.05;;;2.23;85.36
56821;BME280;42702;50.178;20.992;2022-12-07T01:33:59;98827.21;;;2.22;85.33
56821;BME280;42702;50.178;20.992;2022-12-07T01:36:30;98825.22;;;2.18;85.46
56821;BME280;42702;50.178;20.992;2022-12-07T01:39:02;98823.43;;;2.14;85.56
56821;BME280;42702;50.178;20.992;2022-12-07T01:41:32;98820.95;;;2.11;85.67
56821;BME280;42702;50.178;20.992;2022-12-07T01:46:41;98825.17;;;2.15;85.36
56821;BME280;42702;50.178;20.992;2022-12-07T01:49:14;98824.78;;;2.13;85.57
56821;BME280;42702;50.178;20.992;2022-12-07T01:51:46;98825.64;;;2.13;85.82
56821;BME280;42702;50.178;20.992;2022-12-07T01:54:16;98824.96;;;2.14;85.72
56821;BME280;42702;50.178;20.992;2022-12-07T01:56:49;98825.67;;;2.15;85.76
56821;BME280;42702;50.178;20.992;2022-12-07T01:59:22;98823.92;;;2.21;85.59
56821;BME280;42702;50.178;20.992;2022-12-07T02:01:54;98821.80;;;2.26;85.53
56821;BME280;42702;50.178;20.992;2022-12-07T02:04:23;98820.93;;;2.26;85.48
56821;BME280;42702;50.178;20.992;2022-12-07T02:06:53;98819.93;;;2.28;85.59
56821;BME280;42702;50.178;20.992;2022-12-07T02:09:21;98818.23;;;2.29;85.64
56821;BME280;42702;50.178;20.992;2022-12-07T02:11:50;98816.54;;;2.30;85.56
56821;BME280;42702;50.178;20.992;2022-12-07T02:14:19;98810.57;;;2.33;85.55
56821;BME280;42702;50.178;20.992;2022-12-07T02:27:56;98811.33;;;2.45;85.59
56821;BME280;42702;50.178;20.992;2022-12-07T02:30:32;98811.70;;;2.47;85.41
56821;BME280;42702;50.178;20.992;2022-12-07T02:33:12;98812.52;;;2.54;85.17
56821;BME280;42702;50.178;20.992;2022-12-07T02:35:55;98812.61;;;2.58;85.20
56821;BME280;42702;50.178;20.992;2022-12-07T02:38:39;98816.22;;;2.59;85.11
56821;BME280;42702;50.178;20.992;2022-12-07T02:41:16;98812.39;;;2.57;85.13
56821;BME280;42702;50.178;20.992;2022-12-07T02:43:52;98808.89;;;2.53;85.04
56821;BME280;42702;50.178;20.992;2022-12-07T02:46:34;98808.48;;;2.49;85.24
56821;BME280;42702;50.178;20.992;2022-12-07T02:49:04;98805.71;;;2.48;85.29
56821;BME280;42702;50.178;20.992;2022-12-07T02:51:39;98803.92;;;2.54;85.25
56821;BME280;42702;50.178;20.992;2022-12-07T02:54:16;98806.38;;;2.56;85.17
56821;BME280;42702;50.178;20.992;2022-12-07T03:08:24;98793.23;;;2.53;85.30
56821;BME280;42702;50.178;20.992;2022-12-07T03:11:08;98794.27;;;2.54;85.41
56821;BME280;42702;50.178;20.992;2022-12-07T03:14:01;98794.80;;;2.55;85.53
56821;BME280;42702;50.178;20.992;2022-12-07T03:16:55;98790.34;;;2.56;85.59
56821;BME280;42702;50.178;20.992;2022-12-07T03:19:26;98785.91;;;2.57;85.51
56821;BME280;42702;50.178;20.992;2022-12-07T03:22:10;98786.95;;;2.58;85.46
56821;BME280;42702;50.178;20.992;2022-12-07T03:24:57;98786.20;;;2.64;85.42
56821;BME280;42702;50.178;20.992;2022-12-07T03:27:30;98783.30;;;2.64;85.34
56821;BME280;42702;50.178;20.992;2022-12-07T03:30:07;98783.10;;;2.62;85.58
56821;BME280;42702;50.178;20.992;2022-12-07T03:32:41;98778.77;;;2.62;85.44
56821;BME280;42702;50.178;20.992;2022-12-07T03:35:28;98777.05;;;2.62;85.65
56821;BME280;42702;50.178;20.992;2022-12-07T03:38:16;98773.45;;;2.61;85.40
56821;BME280;42702;50.178;20.992;2022-12-07T03:41:01;98771.17;;;2.70;85.44
56821;BME280;42702;50.178;20.992;2022-12-07T03:43:34;98768.23;;;2.69;85.42
56821;BME280;42702;50.178;20.992;2022-12-07T03:51:39;98767.55;;;2.60;85.54
56821;BME280;42702;50.178;20.992;2022-12-07T03:54:26;98769.24;;;2.58;85.57
56821;BME280;42702;50.178;20.992;2022-12-07T03:56:56;98767.55;;;2.60;85.23
56821;BME280;42702;50.178;20.992;2022-12-07T03:59:26;98768.96;;;2.61;85.47
56821;BME280;42702;50.178;20.992;2022-12-07T04:01:59;98772.36;;;2.59;85.49
56821;BME280;42702;50.178;20.992;2022-12-07T04:04:29;98771.83;;;2.59;85.64
56821;BME280;42702;50.178;20.992;2022-12-07T04:06:58;98770.06;;;2.57;85.62
56821;BME280;42702;50.178;20.992;2022-12-07T04:09:26;98770.23;;;2.55;85.52
56821;BME280;42702;50.178;20.992;2022-12-07T04:11:54;98765.88;;;2.62;85.63
56821;BME280;42702;50.178;20.992;2022-12-07T04:14:22;98766.27;;;2.65;85.43
56821;BME280;42702;50.178;20.992;2022-12-07T04:16:54;98767.58;;;2.61;85.52
56821;BME280;42702;50.178;20.992;2022-12-07T04:19:29;98763.07;;;2.59;85.52
56821;BME280;42702;50.178;20.992;2022-12-07T04:21:59;98765.97;;;2.58;85.75
56821;BME280;42702;50.178;20.992;2022-12-07T04:24:28;98762.16;;;2.57;85.50
56821;BME280;42702;50.178;20.992;2022-12-07T04:26:56;98762.91;;;2.59;85.28
56821;BME280;42702;50.178;20.992;2022-12-07T04:29:24;98763.66;;;2.63;85.34
56821;BME280;42702;50.178;20.992;2022-12-07T04:31:53;98761.90;;;2.61;85.37
56821;BME280;42702;50.178;20.992;2022-12-07T04:34:21;98762.19;;;2.58;85.45
56821;BME280;42702;50.178;20.992;2022-12-07T04:36:49;98759.23;;;2.57;85.60
56821;BME280;42702;50.178;20.992;2022-12-07T04:39:23;98759.17;;;2.53;85.59
56821;BME280;42702;50.178;20.992;2022-12-07T04:41:52;98758.80;;;2.51;85.72
56821;BME280;42702;50.178;20.992;2022-12-07T04:44:22;98756.80;;;2.55;85.33
56821;BME280;42702;50.178;20.992;2022-12-07T04:46:51;98759.73;;;2.56;85.45
56821;BME280;42702;50.178;20.992;2022-12-07T04:49:20;98760.92;;;2.54;85.60
56821;BME280;42702;50.178;20.992;2022-12-07T04:51:49;98761.41;;;2.53;85.80
56821;BME280;42702;50.178;20.992;2022-12-07T04:54:17;98756.27;;;2.54;85.91
56821;BME280;42702;50.178;20.992;2022-12-07T04:56:46;98753.15;;;2.53;85.82
56821;BME280;42702;50.178;20.992;2022-12-07T04:59:16;98751.94;;;2.53;85.40
56821;BME280;42702;50.178;20.992;2022-12-07T05:01:44;98751.45;;;2.54;85.49
56821;BME280;42702;50.178;20.992;2022-12-07T05:04:12;98751.48;;;2.56;85.67
56821;BME280;42702;50.178;20.992;2022-12-07T05:06:41;98753.71;;;2.55;85.66
56821;BME280;42702;50.178;20.992;2022-12-07T05:09:09;98750.88;;;2.51;85.69
56821;BME280;42702;50.178;20.992;2022-12-07T05:11:37;98750.00;;;2.50;85.67
56821;BME280;42702;50.178;20.992;2022-12-07T05:14:14;98747.11;;;2.52;85.62
56821;BME280;42702;50.178;20.992;2022-12-07T05:16:44;98747.00;;;2.55;85.54
56821;BME280;42702;50.178;20.992;2022-12-07T05:19:12;98745.79;;;2.55;85.41
56821;BME280;42702;50.178;20.992;2022-12-07T05:21:41;98741.59;;;2.51;85.52
56821;BME280;42702;50.178;20.992;2022-12-07T05:24:11;98742.81;;;2.52;85.93
56821;BME280;42702;50.178;20.992;2022-12-07T05:26:40;98740.49;;;2.57;85.97
56821;BME280;42702;50.178;20.992;2022-12-07T05:29:11;98744.68;;;2.60;85.81
56821;BME280;42702;50.178;20.992;2022-12-07T05:31:40;98739.27;;;2.66;85.56
56821;BME280;42702;50.178;20.992;2022-12-07T05:34:09;98744.48;;;2.69;85.13
56821;BME280;42702;50.178;20.992;2022-12-07T05:36:37;98744.80;;;2.66;85.25
56821;BME280;42702;50.178;20.992;2022-12-07T05:39:05;98742.33;;;2.63;85.28
56821;BME280;42702;50.178;20.992;2022-12-07T05:41:35;98744.22;;;2.63;85.67
56821;BME280;42702;50.178;20.992;2022-12-07T05:44:21;98743.55;;;2.64;85.50
56821;BME280;42702;50.178;20.992;2022-12-07T05:46:50;98744.73;;;2.62;85.42
56821;BME280;42702;50.178;20.992;2022-12-07T05:49:18;98745.08;;;2.63;85.51
56821;BME280;42702;50.178;20.992;2022-12-07T05:51:46;98744.10;;;2.67;85.00
56821;BME280;42702;50.178;20.992;2022-12-07T05:54:14;98744.05;;;2.64;84.98
56821;BME280;42702;50.178;20.992;2022-12-07T05:56:42;98744.02;;;2.61;85.11
56821;BME280;42702;50.178;20.992;2022-12-07T05:59:10;98744.87;;;2.61;85.20
56821;BME280;42702;50.178;20.992;2022-12-07T06:01:56;98741.88;;;2.57;84.96
56821;BME280;42702;50.178;20.992;2022-12-07T06:04:28;98745.71;;;2.50;85.13
56821;BME280;42702;50.178;20.992;2022-12-07T06:06:57;98741.70;;;2.47;85.17
56821;BME280;42702;50.178;20.992;2022-12-07T06:09:27;98739.56;;;2.53;84.91
56821;BME280;42702;50.178;20.992;2022-12-07T06:11:56;98741.58;;;2.50;84.74
56821;BME280;42702;50.178;20.992;2022-12-07T06:14:43;98736.45;;;2.42;84.98
56821;BME280;42702;50.178;20.992;2022-12-07T06:17:12;98738.77;;;2.37;85.27
56821;BME280;42702;50.178;20.992;2022-12-07T06:19:40;98737.30;;;2.32;85.45
56821;BME280;42702;50.178;20.992;2022-12-07T06:22:10;98735.42;;;2.33;85.39
56821;BME280;42702;50.178;20.992;2022-12-07T06:24:39;98740.28;;;2.36;85.44
56821;BME280;42702;50.178;20.992;2022-12-07T06:27:08;98739.75;;;2.34;85.49
56821;BME280;42702;50.178;20.992;2022-12-07T06:29:37;98739.17;;;2.31;85.93
56821;BME280;42702;50.178;20.992;2022-12-07T06:32:05;98741.89;;;2.29;85.93
56821;BME280;42702;50.178;20.992;2022-12-07T06:34:33;98744.27;;;2.27;85.94
56821;BME280;42702;50.178;20.992;2022-12-07T06:37:02;98745.50;;;2.29;86.12
56821;BME280;42702;50.178;20.992;2022-12-07T06:39:31;98747.01;;;2.36;85.86
56821;BME280;42702;50.178;20.992;2022-12-07T06:41:59;98746.98;;;2.36;85.96
56821;BME280;42702;50.178;20.992;2022-12-07T06:44:27;98751.09;;;2.34;86.21
56821;BME280;42702;50.178;20.992;2022-12-07T06:46:55;98747.27;;;2.33;86.35
56821;BME280;42702;50.178;20.992;2022-12-07T06:49:44;98745.35;;;2.31;86.45
56821;BME280;42702;50.178;20.992;2022-12-07T06:52:12;98748.86;;;2.34;86.53
56821;BME280;42702;50.178;20.992;2022-12-07T06:54:40;98747.70;;;2.37;86.43
56821;BME280;42702;50.178;20.992;2022-12-07T06:57:08;98750.80;;;2.37;86.67
56821;BME280;42702;50.178;20.992;2022-12-07T06:59:36;98749.91;;;2.36;86.86
56821;BME280;42702;50.178;20.992;2022-12-07T07:02:04;98749.05;;;2.36;86.79
56821;BME280;42702;50.178;20.992;2022-12-07T07:04:32;98749.58;;;2.36;86.77
56821;BME280;42702;50.178;20.992;2022-12-07T07:07:00;98751.75;;;2.41;86.58
56821;BME280;42702;50.178;20.992;2022-12-07T07:09:28;98748.99;;;2.41;86.53
56821;BME280;42702;50.178;20.992;2022-12-07T07:11:56;98748.78;;;2.39;86.78
56821;BME280;42702;50.178;20.992;2022-12-07T07:14:25;98750.63;;;2.37;86.84
56821;BME280;42702;50.178;20.992;2022-12-07T07:16:53;98748.90;;;2.36;86.86
56821;BME280;42702;50.178;20.992;2022-12-07T07:19:21;98748.76;;;2.38;86.96
56821;BME280;42702;50.178;20.992;2022-12-07T07:21:49;98747.65;;;2.43;86.83
56821;BME280;42702;50.178;20.992;2022-12-07T07:24:17;98748.86;;;2.44;86.63
56821;BME280;42702;50.178;20.992;2022-12-07T07:26:45;98748.87;;;2.44;86.86
56821;BME280;42702;50.178;20.992;2022-12-07T07:29:13;98752.16;;;2.45;86.97
56821;BME280;42702;50.178;20.992;2022-12-07T07:31:41;98752.83;;;2.43;86.90
56821;BME280;42702;50.178;20.992;2022-12-07T07:34:10;98750.27;;;2.45;86.77
56821;BME280;42702;50.178;20.992;2022-12-07T07:36:38;98755.52;;;2.51;86.54
56821;BME280;42702;50.178;20.992;2022-12-07T07:39:06;98755.71;;;2.52;86.63
56821;BME280;42702;50.178;20.992;2022-12-07T07:41:34;98758.45;;;2.51;86.60
56821;BME280;42702;50.178;20.992;2022-12-07T07:44:03;98759.81;;;2.50;86.78
56821;BME280;42702;50.178;20.992;2022-12-07T07:46:31;98759.98;;;2.50;86.69
56821;BME280;42702;50.178;20.992;2022-12-07T07:49:01;98760.21;;;2.53;86.68
56821;BME280;42702;50.178;20.992;2022-12-07T07:51:29;98759.42;;;2.57;86.35
56821;BME280;42702;50.178;20.992;2022-12-07T07:53:57;98763.08;;;2.59;86.24
56821;BME280;42702;50.178;20.992;2022-12-07T07:56:25;98759.56;;;2.56;86.39
56821;BME280;42702;50.178;20.992;2022-12-07T07:58:53;98759.83;;;2.52;86.20
56821;BME280;42702;50.178;20.992;2022-12-07T08:01:22;98761.48;;;2.47;86.48
56821;BME280;42702;50.178;20.992;2022-12-07T08:03:50;98768.02;;;2.48;86.40
56821;BME280;42702;50.178;20.992;2022-12-07T08:06:18;98766.70;;;2.51;86.35
56821;BME280;42702;50.178;20.992;2022-12-07T08:08:46;98767.23;;;2.51;86.40
56821;BME280;42702;50.178;20.992;2022-12-07T08:11:14;98765.42;;;2.46;86.41
56821;BME280;42702;50.178;20.992;2022-12-07T08:13:45;98767.98;;;2.45;86.63
56821;BME280;42702;50.178;20.992;2022-12-07T08:16:14;98775.59;;;2.47;86.36
56821;BME280;42702;50.178;20.992;2022-12-07T08:18:43;98772.45;;;2.44;86.24
56821;BME280;42702;50.178;20.992;2022-12-07T08:21:13;98774.13;;;2.43;86.43
56821;BME280;42702;50.178;20.992;2022-12-07T08:23:42;98774.43;;;2.40;86.33
56821;BME280;42702;50.178;20.992;2022-12-07T08:26:13;98775.42;;;2.38;86.21
56821;BME280;42702;50.178;20.992;2022-12-07T08:28:42;98778.70;;;2.39;86.13
56821;BME280;42702;50.178;20.992;2022-12-07T08:31:16;98778.30;;;2.37;86.06
56821;BME280;42702;50.178;20.992;2022-12-07T08:33:47;98780.67;;;2.34;86.07
56821;BME280;42702;50.178;20.992;2022-12-07T08:36:16;98779.95;;;2.33;86.25
56821;BME280;42702;50.178;20.992;2022-12-07T08:38:45;98783.36;;;2.31;85.99
56821;BME280;42702;50.178;20.992;2022-12-07T08:41:33;98788.50;;;2.30;85.89
56821;BME280;42702;50.178;20.992;2022-12-07T08:44:02;98792.40;;;2.27;85.97
56821;BME280;42702;50.178;20.992;2022-12-07T08:49:06;98793.07;;;2.26;86.32
56821;BME280;42702;50.178;20.992;2022-12-07T08:51:36;98786.70;;;2.26;86.35
56821;BME280;42702;50.178;20.992;2022-12-07T08:54:07;98788.31;;;2.28;86.59
56821;BME280;42702;50.178;20.992;2022-12-07T08:56:37;98789.63;;;2.35;86.22
56821;BME280;42702;50.178;20.992;2022-12-07T08:59:06;98791.92;;;2.38;85.98
56821;BME280;42702;50.178;20.992;2022-12-07T09:01:34;98790.87;;;2.37;86.22
56821;BME280;42702;50.178;20.992;2022-12-07T09:04:02;98792.05;;;2.36;86.17
56821;BME280;42702;50.178;20.992;2022-12-07T09:06:31;98795.81;;;2.35;86.25
56821;BME280;42702;50.178;20.992;2022-12-07T09:09:00;98795.47;;;2.35;86.11
56821;BME280;42702;50.178;20.992;2022-12-07T09:11:29;98799.80;;;2.36;85.84
56821;BME280;42702;50.178;20.992;2022-12-07T09:13:57;98796.50;;;2.34;86.03
56821;BME280;42702;50.178;20.992;2022-12-07T09:16:25;98801.79;;;2.32;86.26
56821;BME280;42702;50.178;20.992;2022-12-07T09:18:53;98796.70;;;2.28;86.12
56821;BME280;42702;50.178;20.992;2022-12-07T09:21:22;98791.88;;;2.27;85.92
56821;BME280;42702;50.178;20.992;2022-12-07T09:23:50;98792.75;;;2.28;86.00
56821;BME280;42702;50.178;20.992;2022-12-07T09:26:18;98790.69;;;2.27;85.99
56821;BME280;42702;50.178;20.992;2022-12-07T09:28:46;98793.70;;;2.23;86.15
56821;BME280;42702;50.178;20.992;2022-12-07T09:31:14;98791.06;;;2.20;86.37
56821;BME280;42702;50.178;20.992;2022-12-07T09:33:56;98790.36;;;2.19;86.55
56821;BME280;42702;50.178;20.992;2022-12-07T09:36:28;98784.09;;;2.24;86.28
56821;BME280;42702;50.178;20.992;2022-12-07T09:38:56;98792.56;;;2.26;86.21
56821;BME280;42702;50.178;20.992;2022-12-07T09:41:26;98793.84;;;2.22;86.22
56821;BME280;42702;50.178;20.992;2022-12-07T09:44:03;98792.20;;;2.18;86.42
56821;BME280;42702;50.178;20.992;2022-12-07T09:46:36;98789.25;;;2.16;86.57
56821;BME280;42702;50.178;20.992;2022-12-07T09:49:11;98780.04;;;2.19;86.61
56821;BME280;42702;50.178;20.992;2022-12-07T09:51:40;98780.41;;;2.20;86.80
56821;BME280;42702;50.178;20.992;2022-12-07T09:54:15;98781.08;;;2.20;86.93
56821;BME280;42702;50.178;20.992;2022-12-07T09:56:44;98780.95;;;2.21;86.98
56821;BME280;42702;50.178;20.992;2022-12-07T09:59:16;98781.69;;;2.24;87.10
56821;BME280;42702;50.178;20.992;2022-12-07T10:01:48;98784.21;;;2.31;86.81
56821;BME280;42702;50.178;20.992;2022-12-07T10:04:22;98776.31;;;2.31;86.82
56821;BME280;42702;50.178;20.992;2022-12-07T10:06:52;98776.94;;;2.27;86.84
56821;BME280;42702;50.178;20.992;2022-12-07T10:09:21;98771.80;;;2.28;87.24
56821;BME280;42702;50.178;20.992;2022-12-07T10:12:07;98772.84;;;2.29;87.16
56821;BME280;42702;50.178;20.992;2022-12-07T10:14:53;98765.25;;;2.37;87.07
56821;BME280;42702;50.178;20.992;2022-12-07T10:17:47;98768.44;;;2.42;86.93
56821;BME280;42702;50.178;20.992;2022-12-07T10:23:08;98775.95;;;2.49;86.95
56821;BME280;42702;50.178;20.992;2022-12-07T10:25:41;98774.08;;;2.49;86.85
56821;BME280;42702;50.178;20.992;2022-12-07T10:28:16;98773.11;;;2.54;86.56
56821;BME280;42702;50.178;20.992;2022-12-07T10:33:37;98772.80;;;2.56;86.75
56821;BME280;42702;50.178;20.992;2022-12-07T10:39:39;98774.58;;;2.58;86.47
56821;BME280;42702;50.178;20.992;2022-12-07T10:41:34;98778.14;;;2.56;86.32
56821;BME280;42702;50.178;20.992;2022-12-07T10:44:03;98772.75;;;2.52;86.54
56821;BME280;42702;50.178;20.992;2022-12-07T10:46:57;98774.64;;;2.52;86.61
56821;BME280;42702;50.178;20.992;2022-12-07T10:49:34;98773.67;;;2.56;86.17
56821;BME280;42702;50.178;20.992;2022-12-07T10:54:56;98773.11;;;2.63;86.38
56821;BME280;42702;50.178;20.992;2022-12-07T11:00:19;98772.61;;;2.63;86.45
56821;BME280;42702;50.178;20.992;2022-12-07T11:08:09;98766.37;;;2.71;86.34
56821;BME280;42702;50.178;20.992;2022-12-07T11:21:06;98763.30;;;2.72;85.92
56821;BME280;42702;50.178;20.992;2022-12-07T11:35:43;98758.30;;;2.72;86.06
56821;BME280;42702;50.178;20.992;2022-12-07T11:38:18;98756.19;;;2.69;86.18
56821;BME280;42702;50.178;20.992;2022-12-07T11:41:00;98758.13;;;2.71;86.25
56821;BME280;42702;50.178;20.992;2022-12-07T11:43:58;98762.89;;;2.79;85.88
56821;BME280;42702;50.178;20.992;2022-12-07T11:49:42;98761.50;;;2.78;85.64
56821;BME280;42702;50.178;20.992;2022-12-07T11:52:35;98760.10;;;2.77;85.58
56821;BME280;42702;50.178;20.992;2022-12-07T11:55:17;98758.46;;;2.82;85.57
56821;BME280;42702;50.178;20.992;2022-12-07T11:57:53;98757.77;;;2.81;85.46
56821;BME280;42702;50.178;20.992;2022-12-07T12:00:22;98756.77;;;2.83;85.92
56821;BME280;42702;50.178;20.992;2022-12-07T12:02:58;98757.50;;;2.85;85.57
56821;BME280;42702;50.178;20.992;2022-12-07T12:05:29;98756.46;;;2.85;85.18
56821;BME280;42702;50.178;20.992;2022-12-07T12:08:19;98752.55;;;2.88;84.96
56821;BME280;42702;50.178;20.992;2022-12-07T12:11:41;98756.73;;;2.90;85.11
56821;BME280;42702;50.178;20.992;2022-12-07T12:17:34;98756.50;;;2.88;85.27
56821;BME280;42702;50.178;20.992;2022-12-07T12:22:59;98755.93;;;2.95;84.93
56821;BME280;42702;50.178;20.992;2022-12-07T12:25:30;98760.11;;;2.97;84.96
56821;BME280;42702;50.178;20.992;2022-12-07T12:27:59;98760.45;;;2.97;85.01
56821;BME280;42702;50.178;20.992;2022-12-07T12:33:30;98765.48;;;2.99;85.16
56821;BME280;42702;50.178;20.992;2022-12-07T12:47:42;98748.95;;;3.00;84.64
56821;BME280;42702;50.178;20.992;2022-12-07T12:50:19;98742.00;;;2.95;84.68
56821;BME280;42702;50.178;20.992;2022-12-07T12:52:52;98743.27;;;3.00;84.61
56821;BME280;42702;50.178;20.992;2022-12-07T13:00:47;98740.88;;;3.00;84.87
56821;BME280;42702;50.178;20.992;2022-12-07T13:03:29;98737.45;;;3.00;85.04
56821;BME280;42702;50.178;20.992;2022-12-07T13:06:17;98738.13;;;3.00;84.88
56821;BME280;42702;50.178;20.992;2022-12-07T13:08:46;98731.08;;;3.02;85.08
56821;BME280;42702;50.178;20.992;2022-12-07T13:11:24;98729.33;;;3.10;84.74
56821;BME280;42702;50.178;20.992;2022-12-07T13:14:58;98732.30;;;3.13;84.72
56821;BME280;42702;50.178;20.992;2022-12-07T13:17:58;98730.75;;;3.14;84.71
56821;BME280;42702;50.178;20.992;2022-12-07T13:20:01;98730.58;;;3.14;84.78
56821;BME280;42702;50.178;20.992;2022-12-07T13:27:40;98729.41;;;3.17;84.59
56821;BME280;42702;50.178;20.992;2022-12-07T13:30:19;98728.27;;;3.21;84.41
56821;BME280;42702;50.178;20.992;2022-12-07T13:32:55;98724.48;;;3.21;84.22
56821;BME280;42702;50.178;20.992;2022-12-07T13:37:56;98721.52;;;3.19;84.76
56821;BME280;42702;50.178;20.992;2022-12-07T13:40:25;98721.72;;;3.21;84.76
56821;BME280;42702;50.178;20.992;2022-12-07T13:43:04;98717.23;;;3.20;84.83
56821;BME280;42702;50.178;20.992;2022-12-07T13:45:33;98716.44;;;3.24;84.49
56821;BME280;42702;50.178;20.992;2022-12-07T13:48:31;98720.58;;;3.25;84.14
56821;BME280;42702;50.178;20.992;2022-12-07T13:51:03;98722.41;;;3.21;84.49
56821;BME280;42702;50.178;20.992;2022-12-07T13:53:31;98720.35;;;3.20;84.48
56821;BME280;42702;50.178;20.992;2022-12-07T13:56:00;98719.98;;;3.20;84.72
56821;BME280;42702;50.178;20.992;2022-12-07T13:58:30;98721.43;;;3.23;84.88
56821;BME280;42702;50.178;20.992;2022-12-07T14:00:59;98724.04;;;3.26;84.66
56821;BME280;42702;50.178;20.992;2022-12-07T14:03:35;98724.61;;;3.29;84.20
56821;BME280;42702;50.178;20.992;2022-12-07T14:06:20;98726.66;;;3.28;84.05
56821;BME280;42702;50.178;20.992;2022-12-07T14:08:49;98723.84;;;3.24;84.48
56821;BME280;42702;50.178;20.992;2022-12-07T14:11:28;98722.79;;;3.22;84.48
56821;BME280;42702;50.178;20.992;2022-12-07T14:13:59;98720.20;;;3.22;84.89
56821;BME280;42702;50.178;20.992;2022-12-07T14:16:36;98717.67;;;3.26;84.88
56821;BME280;42702;50.178;20.992;2022-12-07T14:19:41;98722.52;;;3.27;84.93
56821;BME280;42702;50.178;20.992;2022-12-07T14:22:35;98720.52;;;3.32;84.15
56821;BME280;42702;50.178;20.992;2022-12-07T14:27:58;98727.98;;;3.24;84.47
56821;BME280;42702;50.178;20.992;2022-12-07T14:30:32;98731.20;;;3.21;84.46
56821;BME280;42702;50.178;20.992;2022-12-07T14:33:04;98733.09;;;3.21;84.69
56821;BME280;42702;50.178;20.992;2022-12-07T14:35:33;98735.84;;;3.21;84.63
56821;BME280;42702;50.178;20.992;2022-12-07T14:38:01;98734.97;;;3.20;84.48
56821;BME280;42702;50.178;20.992;2022-12-07T14:40:30;98738.33;;;3.26;84.42
56821;BME280;42702;50.178;20.992;2022-12-07T14:43:04;98735.58;;;3.26;84.31
56821;BME280;42702;50.178;20.992;2022-12-07T14:45:33;98736.23;;;3.23;84.65
56821;BME280;42702;50.178;20.992;2022-12-07T14:48:01;98734.27;;;3.19;84.43
56821;BME280;42702;50.178;20.992;2022-12-07T14:50:51;98735.96;;;3.17;84.37
56821;BME280;42702;50.178;20.992;2022-12-07T14:53:43;98731.95;;;3.14;84.30
56821;BME280;42702;50.178;20.992;2022-12-07T14:56:16;98739.41;;;3.17;83.86
56821;BME280;42702;50.178;20.992;2022-12-07T14:58:44;98745.23;;;3.15;83.70
56821;BME280;42702;50.178;20.992;2022-12-07T15:01:15;98744.99;;;3.11;83.86
56821;BME280;42702;50.178;20.992;2022-12-07T15:03:43;98749.42;;;3.07;83.76
56821;BME280;42702;50.178;20.992;2022-12-07T15:06:17;98749.86;;;3.02;83.54
56821;BME280;42702;50.178;20.992;2022-12-07T15:08:46;98745.88;;;3.01;83.33
56821;BME280;42702;50.178;20.992;2022-12-07T15:11:17;98746.62;;;3.05;83.17
56821;BME280;42702;50.178;20.992;2022-12-07T15:13:46;98745.36;;;3.01;82.88
56821;BME280;42702;50.178;20.992;2022-12-07T15:16:33;98743.06;;;2.97;82.71
56821;BME280;42702;50.178;20.992;2022-12-07T15:19:23;98744.40;;;2.95;82.79
56821;BME280;42702;50.178;20.992;2022-12-07T15:21:57;98747.30;;;2.94;82.70
56821;BME280;42702;50.178;20.992;2022-12-07T15:24:26;98752.30;;;2.93;82.97